createdAt,value
2023-07-12T00:01:24.513Z,22.07
2023-07-12T00:03:55.142Z,21.42
2023-07-12T00:06:32.036Z,22.15
2023-07-12T00:09:00.345Z,22.56
2023-07-12T00:11:28.640Z,22.74
2023-07-12T00:13:57.613Z,22.83
2023-07-12T00:16:28.062Z,22.71
2023-07-12T00:18:59.259Z,22.87
2023-07-12T00:21:30.448Z,22.83
2023-07-12T00:24:00.513Z,22.87
2023-07-12T00:26:30.765Z,22.86
2023-07-12T00:29:02.104Z,22.85
2023-07-12T00:31:32.269Z,22.79
2023-07-12T00:34:02.196Z,22.61
2023-07-12T00:36:34.163Z,22.63
2023-07-12T00:39:04.305Z,22.54
2023-07-12T00:41:52.105Z,22.73
2023-07-12T00:44:24.000Z,22.68
2023-07-12T00:46:55.177Z,22.61
2023-07-12T00:49:24.958Z,22.66
2023-07-12T00:51:59.407Z,22.69
2023-07-12T00:54:29.498Z,22.55
2023-07-12T00:56:57.812Z,22.57
2023-07-12T00:59:31.017Z,22.28
2023-07-12T01:02:05.401Z,22.49
2023-07-12T01:04:39.796Z,22.47
2023-07-12T01:07:08.983Z,22.31
2023-07-12T01:09:37.261Z,22.47
2023-07-12T01:12:06.234Z,22.45
2023-07-12T01:14:34.586Z,22.46
2023-07-12T01:17:05.366Z,22.39
2023-07-12T01:19:36.557Z,22.35
2023-07-12T01:22:07.359Z,22.34
2023-07-12T01:24:35.624Z,22.35
2023-07-12T01:27:13.482Z,22.35
2023-07-12T01:29:41.798Z,22.24
2023-07-12T01:32:10.918Z,22.26
2023-07-12T01:34:39.197Z,22.30
2023-07-12T01:37:09.164Z,22.31
2023-07-12T01:39:38.017Z,22.16
2023-07-12T01:42:07.093Z,21.97
2023-07-12T01:44:35.438Z,22.21
2023-07-12T01:47:03.832Z,22.19
2023-07-12T01:49:32.215Z,22.14
2023-07-12T01:52:00.561Z,22.03
2023-07-12T01:54:30.287Z,22.12
2023-07-12T01:56:58.571Z,22.20
2023-07-12T01:59:26.895Z,22.24
2023-07-12T02:01:55.502Z,22.19
2023-07-12T02:04:23.863Z,22.15
2023-07-12T02:06:52.230Z,22.09
2023-07-12T02:09:20.541Z,22.02
2023-07-12T02:11:51.323Z,22.06
2023-07-12T02:14:19.655Z,22.06
2023-07-12T02:16:47.950Z,22.03
2023-07-12T02:19:16.260Z,22.03
2023-07-12T02:21:44.630Z,22.03
2023-07-12T02:24:12.907Z,21.96
2023-07-12T02:26:42.826Z,21.92
2023-07-12T02:29:12.592Z,21.89
2023-07-12T02:31:41.031Z,21.92
2023-07-12T02:34:09.388Z,21.89
2023-07-12T02:36:37.732Z,21.89
2023-07-12T02:39:06.063Z,21.88
2023-07-12T02:41:34.329Z,21.91
2023-07-12T02:44:02.647Z,21.51
2023-07-12T02:46:32.406Z,21.39
2023-07-12T02:49:00.691Z,20.74
2023-07-12T02:51:29.078Z,20.47
2023-07-12T02:53:57.334Z,20.55
2023-07-12T02:56:25.664Z,20.21
2023-07-12T02:58:53.985Z,20.03
2023-07-12T03:01:22.469Z,20.02
2023-07-12T03:03:52.151Z,19.85
2023-07-12T03:06:20.427Z,20.51
2023-07-12T03:08:48.710Z,20.81
2023-07-12T03:11:17.494Z,20.95
2023-07-12T03:13:45.765Z,21.09
2023-07-12T03:16:14.009Z,21.18
2023-07-12T03:18:42.401Z,21.29
2023-07-12T03:21:12.662Z,21.26
2023-07-12T03:23:41.217Z,21.35
2023-07-12T03:26:09.536Z,21.43
2023-07-12T03:28:37.851Z,21.52
2023-07-12T03:31:08.459Z,21.46
2023-07-12T03:33:37.028Z,21.39
2023-07-12T03:36:06.188Z,21.35
2023-07-12T03:38:35.868Z,21.30
2023-07-12T03:41:06.507Z,21.38
2023-07-12T03:43:35.826Z,21.37
2023-07-12T03:46:04.809Z,21.38
2023-07-12T03:48:33.322Z,21.34
2023-07-12T03:51:01.936Z,20.69
2023-07-12T03:53:30.705Z,20.33
2023-07-12T03:56:02.280Z,20.49
2023-07-12T03:58:33.044Z,20.71
2023-07-12T04:01:04.992Z,20.82
2023-07-12T04:03:34.048Z,20.49
2023-07-12T04:06:02.892Z,20.52
2023-07-12T04:08:31.399Z,19.77
2023-07-12T04:11:01.149Z,20.29
2023-07-12T04:13:29.749Z,20.49
2023-07-12T04:16:02.289Z,20.65
2023-07-12T04:18:31.299Z,20.99
2023-07-12T04:21:06.050Z,20.88
2023-07-12T04:23:34.939Z,21.26
2023-07-12T04:26:06.877Z,21.10
2023-07-12T04:28:40.308Z,20.54
2023-07-12T04:31:12.843Z,20.67
2023-07-12T04:33:42.241Z,20.54
2023-07-12T04:36:11.914Z,20.70
2023-07-12T04:38:40.616Z,20.15
2023-07-12T04:41:11.002Z,20.60
2023-07-12T04:43:39.552Z,20.55
2023-07-12T04:46:08.643Z,20.42
2023-07-12T04:48:37.215Z,20.89
2023-07-12T04:51:05.660Z,21.12
2023-07-12T04:53:35.091Z,20.88
2023-07-12T04:56:03.762Z,21.01
2023-07-12T04:58:33.596Z,20.66
2023-07-12T05:01:05.824Z,20.60
2023-07-12T05:03:34.193Z,20.94
2023-07-12T05:06:17.387Z,21.07
2023-07-12T05:08:50.642Z,21.45
2023-07-12T05:11:18.965Z,21.48
2023-07-12T05:13:48.644Z,21.75
2023-07-12T05:16:16.997Z,22.09
2023-07-12T05:18:45.409Z,22.20
2023-07-12T05:21:14.077Z,22.62
2023-07-12T05:23:43.281Z,22.95
2023-07-12T05:26:11.997Z,23.05
2023-07-12T05:28:40.443Z,23.33
2023-07-12T05:31:11.552Z,23.33
2023-07-12T05:33:43.975Z,23.19
2023-07-12T05:36:12.578Z,23.47
2023-07-12T05:38:40.893Z,22.67
2023-07-12T05:41:09.358Z,22.56
2023-07-12T05:43:37.793Z,22.89
2023-07-12T05:46:06.124Z,22.97
2023-07-12T05:48:35.778Z,23.04
2023-07-12T05:51:05.403Z,23.39
2023-07-12T05:53:33.869Z,23.42
2023-07-12T05:56:03.232Z,23.71
2023-07-12T05:58:31.652Z,23.41
2023-07-12T06:01:00.782Z,23.21
2023-07-12T06:03:29.720Z,23.21
2023-07-12T06:06:00.153Z,23.76
2023-07-12T06:08:29.634Z,24.26
2023-07-12T06:10:58.654Z,24.77
2023-07-12T06:13:27.032Z,24.64
2023-07-12T06:15:55.923Z,25.13
2023-07-12T06:18:24.648Z,25.59
2023-07-12T06:20:58.250Z,26.01
2023-07-12T06:23:28.783Z,26.30
2023-07-12T06:25:59.714Z,26.20
2023-07-12T06:28:28.619Z,25.60
2023-07-12T06:30:57.385Z,25.57
2023-07-12T06:33:25.736Z,25.95
2023-07-12T06:35:54.083Z,25.82
2023-07-12T06:38:22.443Z,26.35
2023-07-12T06:40:52.243Z,26.15
2023-07-12T06:43:20.498Z,26.53
2023-07-12T06:45:48.865Z,27.17
2023-07-12T06:48:17.216Z,26.93
2023-07-12T06:50:45.802Z,27.24
2023-07-12T06:53:14.180Z,27.28
2023-07-12T06:55:46.503Z,27.26
2023-07-12T06:58:16.208Z,27.37
2023-07-12T07:00:45.775Z,27.39
2023-07-12T07:03:15.641Z,27.64
2023-07-12T07:05:46.051Z,27.57
2023-07-12T07:08:15.817Z,28.08
2023-07-12T07:10:44.741Z,28.32
2023-07-12T07:13:13.262Z,28.25
2023-07-12T07:15:46.328Z,28.54
2023-07-12T07:18:14.950Z,28.62
2023-07-12T07:20:45.707Z,28.62
2023-07-12T07:23:14.898Z,29.47
2023-07-12T07:25:43.871Z,29.58
2023-07-12T07:28:12.531Z,28.99
2023-07-12T07:30:40.937Z,29.31
2023-07-12T07:33:10.758Z,29.22
2023-07-12T07:35:39.521Z,29.27
2023-07-12T07:38:07.875Z,29.66
2023-07-12T07:40:36.816Z,29.85
2023-07-12T07:43:05.119Z,30.15
2023-07-12T07:45:33.547Z,30.02
2023-07-12T07:48:02.323Z,30.62
2023-07-12T07:50:32.608Z,30.69
2023-07-12T07:53:00.918Z,30.67
2023-07-12T07:55:29.257Z,30.48
2023-07-12T07:58:00.055Z,31.15
2023-07-12T08:00:28.801Z,32.03
2023-07-12T08:02:57.088Z,32.06
2023-07-12T08:05:25.629Z,32.12
2023-07-12T08:07:55.325Z,31.55
2023-07-12T08:10:23.685Z,32.09
2023-07-12T08:12:52.252Z,31.51
2023-07-12T08:15:22.144Z,32.00
2023-07-12T08:17:50.453Z,32.24
2023-07-12T08:20:19.370Z,32.31
2023-07-12T08:22:48.009Z,32.70
2023-07-12T08:25:17.871Z,32.76
2023-07-12T08:27:46.262Z,33.12
2023-07-12T08:30:15.537Z,32.27
2023-07-12T08:32:43.897Z,32.43
2023-07-12T08:35:13.620Z,33.65
2023-07-12T08:37:43.133Z,34.05
2023-07-12T08:40:15.715Z,34.43
2023-07-12T08:42:46.723Z,33.59
2023-07-12T08:45:23.473Z,33.70
2023-07-12T08:47:55.845Z,34.69
2023-07-12T08:50:24.372Z,35.09
2023-07-12T08:52:53.194Z,34.33
2023-07-12T08:55:24.224Z,33.42
2023-07-12T08:57:58.982Z,33.81
2023-07-12T09:00:30.134Z,34.39
2023-07-12T09:02:58.444Z,35.10
2023-07-12T09:05:27.641Z,34.34
2023-07-12T09:08:01.258Z,35.12
2023-07-12T09:10:34.702Z,35.38
2023-07-12T09:13:04.463Z,34.74
2023-07-12T09:15:36.310Z,34.54
2023-07-12T09:18:09.689Z,35.06
2023-07-12T09:20:42.716Z,35.13
2023-07-12T09:23:15.244Z,34.72
2023-07-12T09:25:48.971Z,35.77
2023-07-12T09:28:18.717Z,35.57
2023-07-12T09:30:47.091Z,35.62
2023-07-12T09:33:20.106Z,35.42
2023-07-12T09:35:48.848Z,35.77
2023-07-12T09:38:19.216Z,36.16
2023-07-12T09:40:49.877Z,36.39
2023-07-12T09:43:24.651Z,36.28
2023-07-12T09:46:12.111Z,36.11
2023-07-12T09:48:45.620Z,36.24
2023-07-12T09:51:30.525Z,36.07
2023-07-12T09:54:04.833Z,36.16
2023-07-12T09:56:41.710Z,37.03
2023-07-12T09:59:21.457Z,37.22
2023-07-12T10:01:55.891Z,36.99
2023-07-12T10:04:39.235Z,36.23
2023-07-12T10:07:17.216Z,36.15
2023-07-12T10:09:49.105Z,36.84
2023-07-12T10:12:26.222Z,37.37
2023-07-12T10:14:57.500Z,37.50
2023-07-12T10:17:34.233Z,37.28
2023-07-12T10:20:04.174Z,38.01
2023-07-12T10:22:37.056Z,37.87
2023-07-12T10:25:13.884Z,37.94
2023-07-12T10:27:47.693Z,37.20
2023-07-12T10:30:20.564Z,38.14
2023-07-12T10:32:53.505Z,38.21
2023-07-12T10:35:26.337Z,37.79
2023-07-12T10:38:00.113Z,37.72
2023-07-12T10:40:34.782Z,37.79
2023-07-12T10:43:08.941Z,37.93
2023-07-12T10:45:40.699Z,38.27
2023-07-12T10:48:11.130Z,38.83
2023-07-12T10:50:46.705Z,38.68
2023-07-12T10:53:34.803Z,37.89
2023-07-12T10:56:18.392Z,38.28
2023-07-12T10:58:52.993Z,38.12
2023-07-12T11:01:52.184Z,38.45
2023-07-12T11:04:27.798Z,38.67
2023-07-12T11:06:59.287Z,38.88
2023-07-12T11:09:29.045Z,38.75
2023-07-12T11:12:07.633Z,37.60
2023-07-12T11:14:52.487Z,38.35
2023-07-12T11:17:25.505Z,38.66
2023-07-12T11:20:09.666Z,39.12
2023-07-12T11:22:54.072Z,39.92
2023-07-12T11:25:28.272Z,40.15
2023-07-12T11:27:59.836Z,39.47
2023-07-12T11:30:41.372Z,40.05
2023-07-12T11:33:25.724Z,40.01
2023-07-12T11:35:58.922Z,40.10
2023-07-12T11:38:30.507Z,40.79
2023-07-12T11:41:00.661Z,38.80
2023-07-12T11:43:35.651Z,38.44
2023-07-12T11:46:12.078Z,39.59
2023-07-12T11:48:45.847Z,40.08
2023-07-12T11:51:22.058Z,40.19
2023-07-12T11:53:54.102Z,40.60
2023-07-12T11:56:22.721Z,41.33
2023-07-12T11:58:51.510Z,41.48
2023-07-12T12:01:21.669Z,40.39
2023-07-12T12:03:54.253Z,40.63
2023-07-12T12:06:23.178Z,40.03
2023-07-12T12:08:56.535Z,40.09
2023-07-12T12:11:29.398Z,40.49
2023-07-12T12:13:59.256Z,40.75
2023-07-12T12:16:30.377Z,40.36
2023-07-12T12:19:02.897Z,40.34
2023-07-12T12:21:31.635Z,40.15
2023-07-12T12:24:08.598Z,39.18
2023-07-12T12:26:41.152Z,38.71
2023-07-12T12:29:18.036Z,39.02
2023-07-12T12:31:55.672Z,38.67
2023-07-12T12:34:29.636Z,38.42
2023-07-12T12:37:00.202Z,38.51
2023-07-12T12:39:29.503Z,38.91
2023-07-12T12:42:00.418Z,39.11
2023-07-12T12:44:32.568Z,38.98
2023-07-12T12:47:18.526Z,38.93
2023-07-12T12:51:02.261Z,38.14
2023-07-12T12:55:30.450Z,39.21
2023-07-12T13:05:49.083Z,38.09
2023-07-12T13:17:33.362Z,38.56
2023-07-12T13:21:26.360Z,38.22
2023-07-12T13:23:56.227Z,38.02
2023-07-12T13:26:26.142Z,38.07
2023-07-12T13:28:54.393Z,38.19
2023-07-12T13:31:24.618Z,37.98
2023-07-12T13:33:56.229Z,38.07
2023-07-12T13:36:31.983Z,37.94
2023-07-12T13:46:38.281Z,37.60
2023-07-12T13:49:07.647Z,37.76
2023-07-12T13:51:37.298Z,37.55
2023-07-12T13:54:06.049Z,37.63
2023-07-12T13:59:17.237Z,37.23
2023-07-12T14:02:00.169Z,37.35
2023-07-12T14:04:37.011Z,37.13
2023-07-12T14:09:39.264Z,37.30
2023-07-12T14:12:15.285Z,37.27
2023-07-12T14:14:44.944Z,37.27
2023-07-12T14:17:14.935Z,37.18
2023-07-12T14:19:44.396Z,36.04
2023-07-12T14:22:15.885Z,36.43
2023-07-12T14:24:44.653Z,36.50
2023-07-12T14:27:19.691Z,36.49
2023-07-12T14:32:23.662Z,36.02
2023-07-12T14:34:53.035Z,36.68
2023-07-12T14:37:24.789Z,36.39
2023-07-12T14:39:53.400Z,36.40
2023-07-12T14:42:25.049Z,36.11
2023-07-12T14:44:53.353Z,36.14
2023-07-12T14:47:23.079Z,36.37
2023-07-12T14:49:52.240Z,36.10
2023-07-12T14:52:27.427Z,36.52
2023-07-12T14:54:59.022Z,36.50
2023-07-12T14:58:02.911Z,36.26
2023-07-12T15:00:20.394Z,36.05
2023-07-12T15:02:53.515Z,35.77
2023-07-12T15:05:22.341Z,35.89
2023-07-12T15:07:52.572Z,35.74
2023-07-12T15:10:21.169Z,35.59
2023-07-12T15:12:52.364Z,35.66
2023-07-12T15:15:23.005Z,35.49
2023-07-12T15:17:54.680Z,35.23
2023-07-12T15:20:25.215Z,35.06
2023-07-12T15:22:55.306Z,34.70
2023-07-12T15:25:25.782Z,34.85
2023-07-12T15:27:55.092Z,34.82
2023-07-12T15:30:27.041Z,34.92
2023-07-12T15:32:57.484Z,34.27
2023-07-12T15:35:28.623Z,34.75
2023-07-12T15:37:59.772Z,34.59
2023-07-12T15:40:51.284Z,34.47
2023-07-12T15:43:21.449Z,34.23
2023-07-12T15:45:50.193Z,34.11
2023-07-12T15:48:21.302Z,34.33
2023-07-12T15:50:51.870Z,34.11
2023-07-12T15:53:23.893Z,34.19
2023-07-12T15:55:52.690Z,34.20
2023-07-12T15:58:23.137Z,34.08
2023-07-12T16:00:57.944Z,33.75
2023-07-12T16:03:28.757Z,33.95
2023-07-12T16:05:58.155Z,33.77
2023-07-12T16:08:28.843Z,33.91
2023-07-12T16:10:59.373Z,33.90
2023-07-12T16:13:31.375Z,33.96
2023-07-12T16:15:59.926Z,33.57
2023-07-12T16:18:30.582Z,33.51
2023-07-12T16:21:01.271Z,33.45
2023-07-12T16:23:34.487Z,33.37
2023-07-12T16:26:03.009Z,33.47
2023-07-12T16:28:31.713Z,33.17
2023-07-12T16:31:00.344Z,33.38
2023-07-12T16:33:31.482Z,33.36
2023-07-12T16:36:00.224Z,33.38
2023-07-12T16:38:32.171Z,33.08
2023-07-12T16:41:04.302Z,33.07
2023-07-12T16:43:33.132Z,33.03
2023-07-12T16:46:01.632Z,33.28
2023-07-12T16:48:30.274Z,33.14
2023-07-12T16:50:58.908Z,33.01
2023-07-12T16:53:34.647Z,32.97
2023-07-12T16:56:05.041Z,32.87
2023-07-12T16:58:33.744Z,32.77
2023-07-12T17:01:05.106Z,32.66
2023-07-12T17:03:37.253Z,32.56
2023-07-12T17:06:08.997Z,32.68
2023-07-12T17:08:39.986Z,32.72
2023-07-12T17:11:11.717Z,32.74
2023-07-12T17:13:40.279Z,32.46
2023-07-12T17:16:11.377Z,32.46
2023-07-12T17:18:40.034Z,32.21
2023-07-12T17:21:12.513Z,32.38
2023-07-12T17:23:43.764Z,32.20
2023-07-12T17:26:14.201Z,32.20
2023-07-12T17:28:42.740Z,32.03
2023-07-12T17:31:17.888Z,31.94
2023-07-12T17:33:46.742Z,31.80
2023-07-12T17:36:17.124Z,31.78
2023-07-12T17:38:47.700Z,31.60
2023-07-12T17:41:19.809Z,31.36
2023-07-12T17:43:48.439Z,30.86
2023-07-12T17:46:17.415Z,31.15
2023-07-12T17:48:46.468Z,31.08
2023-07-12T17:51:19.850Z,31.11
2023-07-12T17:53:49.691Z,31.10
2023-07-12T17:56:18.448Z,31.03
2023-07-12T17:58:47.301Z,30.99
2023-07-12T18:01:19.257Z,30.90
2023-07-12T18:03:48.580Z,30.80
2023-07-12T18:06:18.423Z,30.50
2023-07-12T18:08:47.320Z,30.40
2023-07-12T18:11:25.843Z,30.31
2023-07-12T18:13:54.937Z,30.03
2023-07-12T18:16:23.779Z,30.05
2023-07-12T18:18:53.888Z,29.84
2023-07-12T18:21:27.239Z,29.43
2023-07-12T18:23:56.424Z,29.82
2023-07-12T18:26:27.740Z,29.89
2023-07-12T18:28:56.802Z,29.82
2023-07-12T18:31:27.015Z,29.80
2023-07-12T18:33:55.708Z,29.86
2023-07-12T18:36:24.886Z,29.79
2023-07-12T18:38:56.274Z,29.72
2023-07-12T18:41:28.730Z,29.29
2023-07-12T18:43:57.197Z,29.67
2023-07-12T18:46:26.735Z,29.40
2023-07-12T18:48:55.293Z,29.47
2023-07-12T18:51:26.148Z,29.52
2023-07-12T18:53:55.037Z,29.36
2023-07-12T18:56:27.901Z,29.36
2023-07-12T18:58:56.555Z,29.15
2023-07-12T19:01:26.598Z,29.04
2023-07-12T19:03:55.099Z,28.49
2023-07-12T19:06:25.610Z,28.65
2023-07-12T19:08:53.969Z,28.68
2023-07-12T19:11:26.681Z,28.37
2023-07-12T19:13:55.153Z,28.08
2023-07-12T19:16:23.979Z,28.08
2023-07-12T19:18:52.906Z,27.89
2023-07-12T19:21:26.393Z,27.77
2023-07-12T19:23:56.457Z,28.12
2023-07-12T19:26:28.775Z,27.52
2023-07-12T19:28:57.336Z,27.46
2023-07-12T19:31:27.635Z,27.28
2023-07-12T19:33:59.923Z,27.19
2023-07-12T19:36:29.780Z,26.77
2023-07-12T19:38:59.675Z,26.89
2023-07-12T19:41:33.051Z,26.97
2023-07-12T19:44:01.330Z,26.89
2023-07-12T19:46:29.655Z,26.88
2023-07-12T19:48:58.021Z,26.83
2023-07-12T19:51:29.161Z,26.83
2023-07-12T19:53:59.355Z,26.56
2023-07-12T19:56:29.571Z,27.00
2023-07-12T19:58:59.978Z,27.03
2023-07-12T20:01:30.617Z,26.99
2023-07-12T20:04:00.634Z,27.17
2023-07-12T20:06:29.501Z,27.38
2023-07-12T20:08:57.714Z,27.46
2023-07-12T20:11:27.386Z,27.13
2023-07-12T20:14:00.517Z,26.78
2023-07-12T20:16:30.735Z,26.69
2023-07-12T20:18:59.336Z,26.74
2023-07-12T20:21:27.872Z,26.86
2023-07-12T20:23:56.361Z,27.04
2023-07-12T20:26:24.751Z,26.82
2023-07-12T20:28:53.155Z,27.09
2023-07-12T20:31:22.952Z,27.19
2023-07-12T20:33:51.352Z,27.12
2023-07-12T20:36:19.645Z,27.17
2023-07-12T20:38:47.944Z,27.09
2023-07-12T20:41:16.896Z,27.12
2023-07-12T20:43:45.154Z,26.92
2023-07-12T20:46:13.847Z,26.91
2023-07-12T20:48:44.959Z,26.83
2023-07-12T20:51:15.335Z,26.45
2023-07-12T20:53:45.655Z,26.60
2023-07-12T20:56:14.919Z,26.64
2023-07-12T20:58:43.536Z,26.61
2023-07-12T21:01:14.115Z,26.68
2023-07-12T21:03:44.084Z,26.73
2023-07-12T21:06:12.962Z,26.72
2023-07-12T21:08:42.494Z,26.64
2023-07-12T21:11:10.880Z,26.69
2023-07-12T21:13:40.200Z,26.40
2023-07-12T21:16:10.756Z,26.44
2023-07-12T21:18:41.858Z,26.34
2023-07-12T21:21:11.670Z,26.45
2023-07-12T21:23:41.123Z,26.51
2023-07-12T21:26:10.278Z,26.46
2023-07-12T21:28:38.727Z,26.38
2023-07-12T21:31:07.760Z,26.44
2023-07-12T21:33:36.259Z,26.27
2023-07-12T21:36:06.856Z,26.30
2023-07-12T21:38:36.782Z,26.14
2023-07-12T21:41:08.326Z,26.16
2023-07-12T21:43:37.546Z,26.04
2023-07-12T21:46:06.536Z,26.13
2023-07-12T21:48:36.064Z,26.06
2023-07-12T21:51:05.504Z,26.04
2023-07-12T21:53:33.898Z,25.46
2023-07-12T21:56:03.603Z,25.17
2023-07-12T21:58:31.979Z,24.88
2023-07-12T22:01:00.329Z,25.31
2023-07-12T22:03:28.891Z,25.43
2023-07-12T22:05:57.509Z,25.29
2023-07-12T22:08:39.049Z,25.51
2023-07-12T22:11:10.648Z,25.65
2023-07-12T22:13:39.821Z,25.68
2023-07-12T22:16:11.416Z,25.07
2023-07-12T22:18:48.272Z,24.61
2023-07-12T22:21:20.523Z,24.61
2023-07-12T22:23:50.106Z,24.41
2023-07-12T22:26:23.331Z,24.34
2023-07-12T22:28:52.142Z,24.66
2023-07-12T22:31:20.545Z,24.99
2023-07-12T22:33:48.890Z,25.16
2023-07-12T22:36:17.259Z,25.24
2023-07-12T22:38:48.768Z,25.32
2023-07-12T22:41:17.249Z,25.29
2023-07-12T22:43:46.904Z,25.28
2023-07-12T22:46:15.284Z,25.25
2023-07-12T22:48:43.539Z,25.17
2023-07-12T22:51:12.468Z,25.18
2023-07-12T22:53:40.690Z,25.17
2023-07-12T22:56:10.311Z,25.08
2023-07-12T22:58:38.805Z,25.12
2023-07-12T23:01:08.994Z,25.13
2023-07-12T23:03:37.320Z,25.08
2023-07-12T23:06:05.905Z,24.97
2023-07-12T23:08:34.454Z,24.52
2023-07-12T23:11:03.029Z,24.90
2023-07-12T23:13:32.451Z,24.74
2023-07-12T23:16:13.239Z,23.96
2023-07-12T23:18:46.668Z,23.94
2023-07-12T23:21:15.978Z,24.37
2023-07-12T23:23:45.381Z,24.56
2023-07-12T23:26:16.708Z,24.57
2023-07-12T23:28:46.397Z,24.64
2023-07-12T23:31:16.436Z,24.29
2023-07-12T23:33:44.811Z,24.36
2023-07-12T23:36:15.479Z,24.51
2023-07-12T23:38:45.749Z,24.50
2023-07-12T23:41:15.090Z,24.24
2023-07-12T23:43:43.575Z,24.56
2023-07-12T23:46:13.345Z,24.55
2023-07-12T23:48:43.380Z,24.29
2023-07-12T23:51:12.284Z,24.10
2023-07-12T23:53:40.682Z,24.29
2023-07-12T23:56:13.493Z,24.41
2023-07-12T23:58:47.832Z,24.37
